sensor_id;sensor_type;location;lat;lon;timestamp;P1;durP1;ratioP1;P2;durP2;ratioP2
23230;SDS011;11784;49.818;8.632;2022-08-18T00:00:05;2.65;;;1.70;;
23230;SDS011;11784;49.818;8.632;2022-08-18T00:02:36;3.40;;;1.88;;
23230;SDS011;11784;49.818;8.632;2022-08-18T00:05:03;3.00;;;1.73;;
23230;SDS011;11784;49.818;8.632;2022-08-18T00:07:30;3.90;;;2.13;;
23230;SDS011;11784;49.818;8.632;2022-08-18T00:09:57;3.28;;;1.45;;
23230;SDS011;11784;49.818;8.632;2022-08-18T00:14:51;5.22;;;1.60;;
23230;SDS011;11784;49.818;8.632;2022-08-18T00:17:18;3.38;;;1.80;;
23230;SDS011;11784;49.818;8.632;2022-08-18T00:19:45;2.95;;;1.95;;
23230;SDS011;11784;49.818;8.632;2022-08-18T00:22:12;2.72;;;1.65;;
23230;SDS011;11784;49.818;8.632;2022-08-18T00:24:43;2.10;;;1.45;;
23230;SDS011;11784;49.818;8.632;2022-08-18T00:27:11;4.00;;;2.03;;
23230;SDS011;11784;49.818;8.632;2022-08-18T00:29:36;3.47;;;1.92;;
23230;SDS011;11784;49.818;8.632;2022-08-18T00:32:12;3.60;;;1.95;;
23230;SDS011;11784;49.818;8.632;2022-08-18T00:34:42;6.85;;;1.90;;
23230;SDS011;11784;49.818;8.632;2022-08-18T00:37:08;2.97;;;1.80;;
23230;SDS011;11784;49.818;8.632;2022-08-18T00:39:34;3.55;;;1.52;;
23230;SDS011;11784;49.818;8.632;2022-08-18T00:42:10;2.83;;;1.80;;
23230;SDS011;11784;49.818;8.632;2022-08-18T00:44:42;2.55;;;1.77;;
23230;SDS011;11784;49.818;8.632;2022-08-18T00:47:08;3.30;;;2.05;;
23230;SDS011;11784;49.818;8.632;2022-08-18T00:49:34;3.38;;;2.13;;
23230;SDS011;11784;49.818;8.632;2022-08-18T00:52:01;2.90;;;1.92;;
23230;SDS011;11784;49.818;8.632;2022-08-18T00:54:29;2.38;;;1.75;;
23230;SDS011;11784;49.818;8.632;2022-08-18T00:56:57;5.13;;;1.90;;
23230;SDS011;11784;49.818;8.632;2022-08-18T00:59:31;3.05;;;1.80;;
23230;SDS011;11784;49.818;8.632;2022-08-18T01:02:10;5.93;;;1.98;;
23230;SDS011;11784;49.818;8.632;2022-08-18T01:07:46;4.20;;;2.50;;
23230;SDS011;11784;49.818;8.632;2022-08-18T01:10:14;3.90;;;2.53;;
23230;SDS011;11784;49.818;8.632;2022-08-18T01:12:45;2.67;;;1.50;;
23230;SDS011;11784;49.818;8.632;2022-08-18T01:15:13;5.65;;;1.80;;
23230;SDS011;11784;49.818;8.632;2022-08-18T01:17:40;2.92;;;1.80;;
23230;SDS011;11784;49.818;8.632;2022-08-18T01:20:44;2.67;;;1.90;;
23230;SDS011;11784;49.818;8.632;2022-08-18T01:23:30;3.20;;;2.08;;
23230;SDS011;11784;49.818;8.632;2022-08-18T01:25:56;3.83;;;1.70;;
23230;SDS011;11784;49.818;8.632;2022-08-18T01:28:27;2.95;;;1.73;;
23230;SDS011;11784;49.818;8.632;2022-08-18T01:31:02;3.00;;;1.92;;
23230;SDS011;11784;49.818;8.632;2022-08-18T01:33:29;2.22;;;1.58;;
23230;SDS011;11784;49.818;8.632;2022-08-18T01:36:08;2.78;;;1.50;;
23230;SDS011;11784;49.818;8.632;2022-08-18T01:38:40;3.67;;;1.90;;
23230;SDS011;11784;49.818;8.632;2022-08-18T01:41:19;3.05;;;1.65;;
23230;SDS011;11784;49.818;8.632;2022-08-18T01:43:46;1.80;;;1.00;;
23230;SDS011;11784;49.818;8.632;2022-08-18T01:46:14;3.63;;;1.60;;
23230;SDS011;11784;49.818;8.632;2022-08-18T01:48:44;1.88;;;1.33;;
23230;SDS011;11784;49.818;8.632;2022-08-18T01:51:10;3.00;;;2.05;;
23230;SDS011;11784;49.818;8.632;2022-08-18T01:53:37;3.60;;;1.50;;
23230;SDS011;11784;49.818;8.632;2022-08-18T01:56:03;3.50;;;1.75;;
23230;SDS011;11784;49.818;8.632;2022-08-18T01:58:34;14.60;;;2.03;;
23230;SDS011;11784;49.818;8.632;2022-08-18T02:01:01;2.20;;;1.37;;
23230;SDS011;11784;49.818;8.632;2022-08-18T02:03:32;4.47;;;1.83;;
23230;SDS011;11784;49.818;8.632;2022-08-18T02:06:02;3.25;;;1.75;;
23230;SDS011;11784;49.818;8.632;2022-08-18T02:08:31;2.80;;;1.70;;
23230;SDS011;11784;49.818;8.632;2022-08-18T02:10:57;2.00;;;1.10;;
23230;SDS011;11784;49.818;8.632;2022-08-18T02:13:22;2.38;;;1.42;;
23230;SDS011;11784;49.818;8.632;2022-08-18T02:15:49;5.32;;;1.80;;
23230;SDS011;11784;49.818;8.632;2022-08-18T02:18:16;2.28;;;1.48;;
23230;SDS011;11784;49.818;8.632;2022-08-18T02:20:43;1.75;;;1.02;;
23230;SDS011;11784;49.818;8.632;2022-08-18T02:23:09;4.57;;;1.60;;
23230;SDS011;11784;49.818;8.632;2022-08-18T02:25:35;3.10;;;1.20;;
23230;SDS011;11784;49.818;8.632;2022-08-18T02:28:02;2.00;;;1.30;;
23230;SDS011;11784;49.818;8.632;2022-08-18T02:30:28;3.03;;;1.38;;
23230;SDS011;11784;49.818;8.632;2022-08-18T02:32:56;2.88;;;1.48;;
23230;SDS011;11784;49.818;8.632;2022-08-18T02:35:22;3.83;;;1.90;;
23230;SDS011;11784;49.818;8.632;2022-08-18T02:37:48;2.78;;;1.30;;
23230;SDS011;11784;49.818;8.632;2022-08-18T02:40:14;1.73;;;1.10;;
23230;SDS011;11784;49.818;8.632;2022-08-18T02:42:40;2.17;;;1.50;;
23230;SDS011;11784;49.818;8.632;2022-08-18T02:45:07;4.88;;;1.55;;
23230;SDS011;11784;49.818;8.632;2022-08-18T02:47:33;2.67;;;1.40;;
23230;SDS011;11784;49.818;8.632;2022-08-18T02:49:58;2.22;;;0.93;;
23230;SDS011;11784;49.818;8.632;2022-08-18T02:52:24;2.00;;;1.27;;
23230;SDS011;11784;49.818;8.632;2022-08-18T02:54:59;2.28;;;1.38;;
23230;SDS011;11784;49.818;8.632;2022-08-18T02:57:25;2.97;;;1.30;;
23230;SDS011;11784;49.818;8.632;2022-08-18T02:59:52;2.40;;;1.65;;
23230;SDS011;11784;49.818;8.632;2022-08-18T03:02:18;2.30;;;1.30;;
23230;SDS011;11784;49.818;8.632;2022-08-18T03:04:44;1.77;;;1.20;;
23230;SDS011;11784;49.818;8.632;2022-08-18T03:07:10;2.28;;;1.38;;
23230;SDS011;11784;49.818;8.632;2022-08-18T03:09:36;2.40;;;1.00;;
23230;SDS011;11784;49.818;8.632;2022-08-18T03:12:03;1.95;;;1.00;;
23230;SDS011;11784;49.818;8.632;2022-08-18T03:14:31;1.85;;;1.17;;
23230;SDS011;11784;49.818;8.632;2022-08-18T03:16:57;2.80;;;1.33;;
23230;SDS011;11784;49.818;8.632;2022-08-18T03:19:24;4.72;;;1.30;;
23230;SDS011;11784;49.818;8.632;2022-08-18T03:21:52;5.43;;;1.77;;
23230;SDS011;11784;49.818;8.632;2022-08-18T03:24:19;1.50;;;1.20;;
23230;SDS011;11784;49.818;8.632;2022-08-18T03:26:45;3.38;;;1.27;;
23230;SDS011;11784;49.818;8.632;2022-08-18T03:29:11;2.50;;;1.33;;
23230;SDS011;11784;49.818;8.632;2022-08-18T03:31:38;3.72;;;1.50;;
23230;SDS011;11784;49.818;8.632;2022-08-18T03:34:07;1.38;;;1.08;;
23230;SDS011;11784;49.818;8.632;2022-08-18T03:36:33;1.63;;;0.98;;
23230;SDS011;11784;49.818;8.632;2022-08-18T03:39:04;2.35;;;1.48;;
23230;SDS011;11784;49.818;8.632;2022-08-18T03:41:32;1.95;;;1.27;;
23230;SDS011;11784;49.818;8.632;2022-08-18T03:43:59;2.03;;;1.13;;
23230;SDS011;11784;49.818;8.632;2022-08-18T03:46:26;3.92;;;1.48;;
23230;SDS011;11784;49.818;8.632;2022-08-18T03:48:52;2.22;;;1.40;;
23230;SDS011;11784;49.818;8.632;2022-08-18T03:51:24;2.42;;;1.35;;
23230;SDS011;11784;49.818;8.632;2022-08-18T03:56:24;2.42;;;1.05;;
23230;SDS011;11784;49.818;8.632;2022-08-18T03:58:52;2.97;;;1.25;;
23230;SDS011;11784;49.818;8.632;2022-08-18T04:01:23;4.47;;;1.30;;
23230;SDS011;11784;49.818;8.632;2022-08-18T04:03:52;2.85;;;1.60;;
23230;SDS011;11784;49.818;8.632;2022-08-18T04:06:25;2.60;;;1.38;;
23230;SDS011;11784;49.818;8.632;2022-08-18T04:08:54;1.90;;;0.98;;
23230;SDS011;11784;49.818;8.632;2022-08-18T04:11:22;3.50;;;1.63;;
23230;SDS011;11784;49.818;8.632;2022-08-18T04:13:47;3.75;;;1.35;;
23230;SDS011;11784;49.818;8.632;2022-08-18T04:16:14;6.05;;;1.90;;
23230;SDS011;11784;49.818;8.632;2022-08-18T04:18:39;3.95;;;1.45;;
23230;SDS011;11784;49.818;8.632;2022-08-18T04:21:06;2.90;;;1.48;;
23230;SDS011;11784;49.818;8.632;2022-08-18T04:23:35;4.57;;;1.48;;
23230;SDS011;11784;49.818;8.632;2022-08-18T04:26:03;1.98;;;1.10;;
23230;SDS011;11784;49.818;8.632;2022-08-18T04:28:30;1.90;;;1.30;;
23230;SDS011;11784;49.818;8.632;2022-08-18T04:30:56;2.33;;;1.25;;
23230;SDS011;11784;49.818;8.632;2022-08-18T04:33:23;2.42;;;1.20;;
23230;SDS011;11784;49.818;8.632;2022-08-18T04:35:50;4.15;;;1.60;;
23230;SDS011;11784;49.818;8.632;2022-08-18T04:38:16;4.00;;;1.98;;
23230;SDS011;11784;49.818;8.632;2022-08-18T04:40:41;2.63;;;1.00;;
23230;SDS011;11784;49.818;8.632;2022-08-18T04:43:07;2.38;;;1.25;;
23230;SDS011;11784;49.818;8.632;2022-08-18T04:45:40;4.90;;;1.70;;
23230;SDS011;11784;49.818;8.632;2022-08-18T04:48:06;4.55;;;1.63;;
23230;SDS011;11784;49.818;8.632;2022-08-18T04:50:32;2.15;;;1.25;;
23230;SDS011;11784;49.818;8.632;2022-08-18T04:52:59;4.47;;;1.45;;
23230;SDS011;11784;49.818;8.632;2022-08-18T04:55:50;5.00;;;1.70;;
23230;SDS011;11784;49.818;8.632;2022-08-18T04:58:18;4.32;;;1.50;;
23230;SDS011;11784;49.818;8.632;2022-08-18T05:00:45;5.35;;;1.30;;
23230;SDS011;11784;49.818;8.632;2022-08-18T05:03:11;2.10;;;1.27;;
23230;SDS011;11784;49.818;8.632;2022-08-18T05:05:37;3.22;;;1.60;;
23230;SDS011;11784;49.818;8.632;2022-08-18T05:08:03;3.35;;;1.70;;
23230;SDS011;11784;49.818;8.632;2022-08-18T05:10:29;3.15;;;1.40;;
23230;SDS011;11784;49.818;8.632;2022-08-18T05:12:54;2.15;;;1.15;;
23230;SDS011;11784;49.818;8.632;2022-08-18T05:15:20;1.67;;;1.25;;
23230;SDS011;11784;49.818;8.632;2022-08-18T05:17:46;2.15;;;1.20;;
23230;SDS011;11784;49.818;8.632;2022-08-18T05:20:11;2.70;;;1.17;;
23230;SDS011;11784;49.818;8.632;2022-08-18T05:22:38;2.90;;;1.50;;
23230;SDS011;11784;49.818;8.632;2022-08-18T05:25:05;2.28;;;1.13;;
23230;SDS011;11784;49.818;8.632;2022-08-18T05:27:33;2.60;;;1.20;;
23230;SDS011;11784;49.818;8.632;2022-08-18T05:30:00;4.35;;;1.58;;
23230;SDS011;11784;49.818;8.632;2022-08-18T05:32:28;3.35;;;1.35;;
23230;SDS011;11784;49.818;8.632;2022-08-18T05:34:56;3.78;;;1.58;;
23230;SDS011;11784;49.818;8.632;2022-08-18T05:37:27;3.60;;;1.50;;
23230;SDS011;11784;49.818;8.632;2022-08-18T05:40:00;5.80;;;1.35;;
23230;SDS011;11784;49.818;8.632;2022-08-18T05:42:29;2.03;;;1.38;;
23230;SDS011;11784;49.818;8.632;2022-08-18T05:45:00;2.00;;;1.00;;
23230;SDS011;11784;49.818;8.632;2022-08-18T05:47:30;3.15;;;2.13;;
23230;SDS011;11784;49.818;8.632;2022-08-18T05:50:02;1.55;;;1.00;;
23230;SDS011;11784;49.818;8.632;2022-08-18T05:52:35;3.60;;;1.90;;
23230;SDS011;11784;49.818;8.632;2022-08-18T05:58:32;2.45;;;1.23;;
23230;SDS011;11784;49.818;8.632;2022-08-18T06:01:03;3.38;;;1.45;;
23230;SDS011;11784;49.818;8.632;2022-08-18T06:03:39;5.30;;;1.50;;
23230;SDS011;11784;49.818;8.632;2022-08-18T06:06:14;3.58;;;1.58;;
23230;SDS011;11784;49.818;8.632;2022-08-18T06:08:45;3.58;;;1.63;;
23230;SDS011;11784;49.818;8.632;2022-08-18T06:11:31;3.45;;;1.33;;
23230;SDS011;11784;49.818;8.632;2022-08-18T06:13:57;4.20;;;1.70;;
23230;SDS011;11784;49.818;8.632;2022-08-18T06:19:21;5.28;;;1.75;;
23230;SDS011;11784;49.818;8.632;2022-08-18T06:27:52;3.30;;;1.58;;
23230;SDS011;11784;49.818;8.632;2022-08-18T06:38:19;3.78;;;1.30;;
23230;SDS011;11784;49.818;8.632;2022-08-18T06:41:20;2.22;;;1.50;;
23230;SDS011;11784;49.818;8.632;2022-08-18T06:43:59;2.60;;;1.25;;
23230;SDS011;11784;49.818;8.632;2022-08-18T06:46:39;4.28;;;1.73;;
23230;SDS011;11784;49.818;8.632;2022-08-18T06:49:13;8.52;;;2.47;;
23230;SDS011;11784;49.818;8.632;2022-08-18T06:51:48;2.97;;;1.58;;
23230;SDS011;11784;49.818;8.632;2022-08-18T06:56:49;3.25;;;1.23;;
23230;SDS011;11784;49.818;8.632;2022-08-18T07:01:52;2.00;;;1.30;;
23230;SDS011;11784;49.818;8.632;2022-08-18T07:04:37;2.00;;;1.17;;
23230;SDS011;11784;49.818;8.632;2022-08-18T07:07:12;4.20;;;1.77;;
23230;SDS011;11784;49.818;8.632;2022-08-18T07:09:54;2.65;;;1.65;;
23230;SDS011;11784;49.818;8.632;2022-08-18T07:12:22;2.78;;;1.60;;
23230;SDS011;11784;49.818;8.632;2022-08-18T07:14:53;3.22;;;1.83;;
23230;SDS011;11784;49.818;8.632;2022-08-18T07:17:27;4.28;;;1.73;;
23230;SDS011;11784;49.818;8.632;2022-08-18T07:19:55;3.30;;;1.80;;
23230;SDS011;11784;49.818;8.632;2022-08-18T07:22:22;3.85;;;1.85;;
23230;SDS011;11784;49.818;8.632;2022-08-18T07:24:49;2.28;;;1.55;;
23230;SDS011;11784;49.818;8.632;2022-08-18T07:27:21;2.47;;;1.60;;
23230;SDS011;11784;49.818;8.632;2022-08-18T07:30:06;3.72;;;2.08;;
23230;SDS011;11784;49.818;8.632;2022-08-18T07:35:09;2.20;;;1.63;;
23230;SDS011;11784;49.818;8.632;2022-08-18T07:43:04;2.45;;;1.65;;
23230;SDS011;11784;49.818;8.632;2022-08-18T07:45:38;8.15;;;1.50;;
23230;SDS011;11784;49.818;8.632;2022-08-18T07:48:17;1.45;;;0.98;;
23230;SDS011;11784;49.818;8.632;2022-08-18T07:50:55;3.60;;;1.98;;
23230;SDS011;11784;49.818;8.632;2022-08-18T07:54:04;2.97;;;1.77;;
23230;SDS011;11784;49.818;8.632;2022-08-18T07:59:07;3.10;;;1.75;;
23230;SDS011;11784;49.818;8.632;2022-08-18T08:01:43;4.75;;;1.58;;
23230;SDS011;11784;49.818;8.632;2022-08-18T08:04:24;6.22;;;2.17;;
23230;SDS011;11784;49.818;8.632;2022-08-18T08:07:04;3.97;;;2.55;;
23230;SDS011;11784;49.818;8.632;2022-08-18T08:09:50;4.50;;;2.35;;
23230;SDS011;11784;49.818;8.632;2022-08-18T08:20:25;3.90;;;1.70;;
23230;SDS011;11784;49.818;8.632;2022-08-18T08:31:31;3.47;;;1.80;;
23230;SDS011;11784;49.818;8.632;2022-08-18T08:36:45;4.32;;;2.53;;
23230;SDS011;11784;49.818;8.632;2022-08-18T08:39:14;5.63;;;2.45;;
23230;SDS011;11784;49.818;8.632;2022-08-18T08:42:06;3.88;;;1.75;;
23230;SDS011;11784;49.818;8.632;2022-08-18T08:44:50;4.18;;;2.20;;
23230;SDS011;11784;49.818;8.632;2022-08-18T08:47:28;5.55;;;2.53;;
23230;SDS011;11784;49.818;8.632;2022-08-18T08:52:45;8.90;;;2.75;;
23230;SDS011;11784;49.818;8.632;2022-08-18T08:55:19;4.93;;;2.58;;
23230;SDS011;11784;49.818;8.632;2022-08-18T09:00:46;6.68;;;3.03;;
23230;SDS011;11784;49.818;8.632;2022-08-18T09:06:08;11.57;;;2.65;;
23230;SDS011;11784;49.818;8.632;2022-08-18T09:14:13;3.85;;;1.92;;
23230;SDS011;11784;49.818;8.632;2022-08-18T09:19:46;4.57;;;2.50;;
23230;SDS011;11784;49.818;8.632;2022-08-18T09:22:44;3.60;;;1.75;;
23230;SDS011;11784;49.818;8.632;2022-08-18T09:25:29;4.03;;;2.20;;
23230;SDS011;11784;49.818;8.632;2022-08-18T09:28:09;4.65;;;2.58;;
23230;SDS011;11784;49.818;8.632;2022-08-18T09:30:42;5.40;;;2.20;;
23230;SDS011;11784;49.818;8.632;2022-08-18T09:38:33;6.45;;;2.45;;
23230;SDS011;11784;49.818;8.632;2022-08-18T09:41:30;4.00;;;2.33;;
23230;SDS011;11784;49.818;8.632;2022-08-18T09:51:58;4.63;;;2.72;;
23230;SDS011;11784;49.818;8.632;2022-08-18T09:54:29;5.00;;;3.33;;
23230;SDS011;11784;49.818;8.632;2022-08-18T10:01:56;5.25;;;2.50;;
23230;SDS011;11784;49.818;8.632;2022-08-18T10:04:40;4.90;;;2.67;;
23230;SDS011;11784;49.818;8.632;2022-08-18T10:13:13;7.43;;;3.00;;
23230;SDS011;11784;49.818;8.632;2022-08-18T10:21:59;8.70;;;3.25;;
23230;SDS011;11784;49.818;8.632;2022-08-18T10:24:32;6.03;;;3.00;;
23230;SDS011;11784;49.818;8.632;2022-08-18T10:27:02;7.40;;;2.38;;
23230;SDS011;11784;49.818;8.632;2022-08-18T10:37:11;5.32;;;3.42;;
23230;SDS011;11784;49.818;8.632;2022-08-18T10:39:54;5.28;;;2.88;;
23230;SDS011;11784;49.818;8.632;2022-08-18T10:42:26;4.90;;;3.25;;
23230;SDS011;11784;49.818;8.632;2022-08-18T10:45:05;4.38;;;3.15;;
23230;SDS011;11784;49.818;8.632;2022-08-18T10:47:38;5.60;;;3.22;;
23230;SDS011;11784;49.818;8.632;2022-08-18T10:50:17;5.80;;;2.60;;
23230;SDS011;11784;49.818;8.632;2022-08-18T11:01:02;7.15;;;2.92;;
23230;SDS011;11784;49.818;8.632;2022-08-18T11:06:08;6.47;;;3.58;;
23230;SDS011;11784;49.818;8.632;2022-08-18T11:08:41;6.65;;;3.17;;
23230;SDS011;11784;49.818;8.632;2022-08-18T11:11:10;4.32;;;2.58;;
23230;SDS011;11784;49.818;8.632;2022-08-18T11:19:15;6.80;;;3.75;;
23230;SDS011;11784;49.818;8.632;2022-08-18T11:21:46;5.63;;;3.35;;
23230;SDS011;11784;49.818;8.632;2022-08-18T11:24:18;10.38;;;4.40;;
23230;SDS011;11784;49.818;8.632;2022-08-18T11:29:24;8.13;;;3.92;;
23230;SDS011;11784;49.818;8.632;2022-08-18T11:32:03;7.47;;;4.68;;
23230;SDS011;11784;49.818;8.632;2022-08-18T11:34:37;12.98;;;6.95;;
23230;SDS011;11784;49.818;8.632;2022-08-18T11:37:12;14.20;;;6.43;;
23230;SDS011;11784;49.818;8.632;2022-08-18T11:39:59;9.15;;;5.18;;
23230;SDS011;11784;49.818;8.632;2022-08-18T11:42:30;9.80;;;5.82;;
23230;SDS011;11784;49.818;8.632;2022-08-18T11:45:18;9.23;;;5.32;;
23230;SDS011;11784;49.818;8.632;2022-08-18T11:47:57;16.90;;;6.93;;
23230;SDS011;11784;49.818;8.632;2022-08-18T11:53:34;9.23;;;5.35;;
23230;SDS011;11784;49.818;8.632;2022-08-18T12:01:09;9.35;;;5.65;;
23230;SDS011;11784;49.818;8.632;2022-08-18T12:03:53;10.05;;;5.53;;
23230;SDS011;11784;49.818;8.632;2022-08-18T12:06:24;9.55;;;6.00;;
23230;SDS011;11784;49.818;8.632;2022-08-18T12:11:24;9.65;;;6.10;;
23230;SDS011;11784;49.818;8.632;2022-08-18T12:14:09;10.05;;;5.25;;
23230;SDS011;11784;49.818;8.632;2022-08-18T12:16:42;6.63;;;3.55;;
23230;SDS011;11784;49.818;8.632;2022-08-18T12:19:09;7.05;;;3.92;;
23230;SDS011;11784;49.818;8.632;2022-08-18T12:21:48;9.65;;;5.38;;
23230;SDS011;11784;49.818;8.632;2022-08-18T12:24:21;9.18;;;5.10;;
23230;SDS011;11784;49.818;8.632;2022-08-18T12:26:48;10.48;;;4.95;;
23230;SDS011;11784;49.818;8.632;2022-08-18T12:29:14;6.40;;;4.07;;
23230;SDS011;11784;49.818;8.632;2022-08-18T12:31:42;8.70;;;4.88;;
23230;SDS011;11784;49.818;8.632;2022-08-18T12:34:08;8.02;;;4.78;;
23230;SDS011;11784;49.818;8.632;2022-08-18T12:36:34;7.90;;;4.95;;
23230;SDS011;11784;49.818;8.632;2022-08-18T12:39:00;7.30;;;4.32;;
23230;SDS011;11784;49.818;8.632;2022-08-18T12:41:27;7.47;;;4.25;;
23230;SDS011;11784;49.818;8.632;2022-08-18T12:43:52;6.82;;;4.00;;
23230;SDS011;11784;49.818;8.632;2022-08-18T12:46:19;8.07;;;4.43;;
23230;SDS011;11784;49.818;8.632;2022-08-18T12:48:45;7.50;;;4.40;;
23230;SDS011;11784;49.818;8.632;2022-08-18T12:51:11;7.45;;;4.28;;
23230;SDS011;11784;49.818;8.632;2022-08-18T12:53:37;8.05;;;4.85;;
23230;SDS011;11784;49.818;8.632;2022-08-18T12:56:19;7.30;;;4.47;;
23230;SDS011;11784;49.818;8.632;2022-08-18T12:58:49;6.35;;;4.35;;
23230;SDS011;11784;49.818;8.632;2022-08-18T13:01:16;9.75;;;4.22;;
23230;SDS011;11784;49.818;8.632;2022-08-18T13:03:43;8.43;;;5.00;;
23230;SDS011;11784;49.818;8.632;2022-08-18T13:06:10;13.20;;;4.95;;
23230;SDS011;11784;49.818;8.632;2022-08-18T13:08:37;7.38;;;4.18;;
23230;SDS011;11784;49.818;8.632;2022-08-18T13:11:03;7.55;;;4.30;;
23230;SDS011;11784;49.818;8.632;2022-08-18T13:13:29;6.18;;;4.50;;
23230;SDS011;11784;49.818;8.632;2022-08-18T13:15:55;9.65;;;4.32;;
23230;SDS011;11784;49.818;8.632;2022-08-18T13:18:20;10.35;;;5.53;;
23230;SDS011;11784;49.818;8.632;2022-08-18T13:20:46;10.73;;;5.82;;
23230;SDS011;11784;49.818;8.632;2022-08-18T13:23:12;6.95;;;4.60;;
23230;SDS011;11784;49.818;8.632;2022-08-18T13:25:38;6.68;;;3.80;;
23230;SDS011;11784;49.818;8.632;2022-08-18T13:28:05;5.20;;;3.25;;
23230;SDS011;11784;49.818;8.632;2022-08-18T13:30:31;6.80;;;4.07;;
23230;SDS011;11784;49.818;8.632;2022-08-18T13:32:57;6.13;;;3.45;;
23230;SDS011;11784;49.818;8.632;2022-08-18T13:35:26;6.50;;;3.65;;
23230;SDS011;11784;49.818;8.632;2022-08-18T13:37:52;4.07;;;2.70;;
23230;SDS011;11784;49.818;8.632;2022-08-18T13:40:19;6.13;;;3.60;;
23230;SDS011;11784;49.818;8.632;2022-08-18T13:42:46;4.15;;;2.92;;
23230;SDS011;11784;49.818;8.632;2022-08-18T13:45:18;5.18;;;3.20;;
23230;SDS011;11784;49.818;8.632;2022-08-18T13:47:46;5.78;;;3.92;;
23230;SDS011;11784;49.818;8.632;2022-08-18T13:50:13;4.05;;;3.13;;
23230;SDS011;11784;49.818;8.632;2022-08-18T13:52:40;6.15;;;3.58;;
23230;SDS011;11784;49.818;8.632;2022-08-18T13:55:08;10.20;;;3.72;;
23230;SDS011;11784;49.818;8.632;2022-08-18T13:57:36;6.25;;;3.38;;
23230;SDS011;11784;49.818;8.632;2022-08-18T14:00:04;4.78;;;3.20;;
23230;SDS011;11784;49.818;8.632;2022-08-18T14:02:32;6.53;;;3.20;;
23230;SDS011;11784;49.818;8.632;2022-08-18T14:04:58;7.15;;;3.35;;
23230;SDS011;11784;49.818;8.632;2022-08-18T14:07:24;6.32;;;3.63;;
23230;SDS011;11784;49.818;8.632;2022-08-18T14:09:49;5.80;;;3.47;;
23230;SDS011;11784;49.818;8.632;2022-08-18T14:12:16;5.75;;;3.78;;
23230;SDS011;11784;49.818;8.632;2022-08-18T14:17:10;5.28;;;3.40;;
23230;SDS011;11784;49.818;8.632;2022-08-18T14:19:36;6.00;;;3.70;;
23230;SDS011;11784;49.818;8.632;2022-08-18T14:22:20;4.13;;;2.92;;
23230;SDS011;11784;49.818;8.632;2022-08-18T14:25:04;3.75;;;2.75;;
23230;SDS011;11784;49.818;8.632;2022-08-18T14:27:49;6.78;;;2.95;;
23230;SDS011;11784;49.818;8.632;2022-08-18T14:30:14;7.80;;;3.22;;
23230;SDS011;11784;49.818;8.632;2022-08-18T14:32:42;5.22;;;2.92;;
23230;SDS011;11784;49.818;8.632;2022-08-18T14:35:09;5.70;;;3.28;;
23230;SDS011;11784;49.818;8.632;2022-08-18T14:37:36;4.97;;;3.08;;
23230;SDS011;11784;49.818;8.632;2022-08-18T14:40:02;4.97;;;3.40;;
23230;SDS011;11784;49.818;8.632;2022-08-18T14:42:32;7.15;;;3.17;;
23230;SDS011;11784;49.818;8.632;2022-08-18T14:44:58;4.35;;;2.90;;
23230;SDS011;11784;49.818;8.632;2022-08-18T14:47:24;8.20;;;2.90;;
23230;SDS011;11784;49.818;8.632;2022-08-18T14:49:51;6.13;;;2.95;;
23230;SDS011;11784;49.818;8.632;2022-08-18T14:52:18;4.53;;;2.72;;
23230;SDS011;11784;49.818;8.632;2022-08-18T14:54:47;3.67;;;2.55;;
23230;SDS011;11784;49.818;8.632;2022-08-18T14:57:13;5.45;;;2.83;;
23230;SDS011;11784;49.818;8.632;2022-08-18T14:59:39;4.75;;;2.80;;
23230;SDS011;11784;49.818;8.632;2022-08-18T15:02:06;5.38;;;3.22;;
23230;SDS011;11784;49.818;8.632;2022-08-18T15:04:34;9.18;;;3.35;;
23230;SDS011;11784;49.818;8.632;2022-08-18T15:06:59;6.30;;;3.03;;
23230;SDS011;11784;49.818;8.632;2022-08-18T15:09:25;6.28;;;3.58;;
23230;SDS011;11784;49.818;8.632;2022-08-18T15:11:51;4.60;;;3.00;;
23230;SDS011;11784;49.818;8.632;2022-08-18T15:14:19;4.13;;;2.92;;
23230;SDS011;11784;49.818;8.632;2022-08-18T15:16:45;4.85;;;2.85;;
23230;SDS011;11784;49.818;8.632;2022-08-18T15:19:11;5.55;;;2.97;;
23230;SDS011;11784;49.818;8.632;2022-08-18T15:21:36;8.05;;;3.20;;
23230;SDS011;11784;49.818;8.632;2022-08-18T15:24:20;5.90;;;3.20;;
23230;SDS011;11784;49.818;8.632;2022-08-18T15:27:04;3.97;;;2.75;;
23230;SDS011;11784;49.818;8.632;2022-08-18T15:29:30;5.65;;;2.85;;
23230;SDS011;11784;49.818;8.632;2022-08-18T15:31:58;6.18;;;3.42;;
23230;SDS011;11784;49.818;8.632;2022-08-18T15:34:26;5.30;;;3.00;;
23230;SDS011;11784;49.818;8.632;2022-08-18T15:36:52;5.60;;;3.25;;
23230;SDS011;11784;49.818;8.632;2022-08-18T15:39:19;3.88;;;2.50;;
23230;SDS011;11784;49.818;8.632;2022-08-18T15:41:45;4.43;;;2.40;;
23230;SDS011;11784;49.818;8.632;2022-08-18T15:44:13;5.82;;;3.20;;
23230;SDS011;11784;49.818;8.632;2022-08-18T15:46:42;4.82;;;2.92;;
23230;SDS011;11784;49.818;8.632;2022-08-18T15:49:08;4.57;;;2.38;;
23230;SDS011;11784;49.818;8.632;2022-08-18T15:51:34;5.50;;;3.03;;
23230;SDS011;11784;49.818;8.632;2022-08-18T15:54:04;4.15;;;2.58;;
23230;SDS011;11784;49.818;8.632;2022-08-18T15:56:30;3.28;;;2.05;;
23230;SDS011;11784;49.818;8.632;2022-08-18T15:58:58;4.00;;;2.72;;
23230;SDS011;11784;49.818;8.632;2022-08-18T16:01:30;3.55;;;1.90;;
23230;SDS011;11784;49.818;8.632;2022-08-18T16:03:57;4.30;;;2.17;;
23230;SDS011;11784;49.818;8.632;2022-08-18T16:06:23;7.50;;;2.70;;
23230;SDS011;11784;49.818;8.632;2022-08-18T16:08:51;4.22;;;2.67;;
23230;SDS011;11784;49.818;8.632;2022-08-18T16:11:17;4.18;;;2.42;;
23230;SDS011;11784;49.818;8.632;2022-08-18T16:13:44;4.40;;;2.85;;
23230;SDS011;11784;49.818;8.632;2022-08-18T16:16:22;4.65;;;2.58;;
23230;SDS011;11784;49.818;8.632;2022-08-18T16:18:49;5.07;;;2.20;;
23230;SDS011;11784;49.818;8.632;2022-08-18T16:21:16;4.72;;;2.35;;
23230;SDS011;11784;49.818;8.632;2022-08-18T16:23:45;4.70;;;2.47;;
23230;SDS011;11784;49.818;8.632;2022-08-18T16:26:13;3.88;;;2.20;;
23230;SDS011;11784;49.818;8.632;2022-08-18T16:28:44;7.32;;;2.70;;
23230;SDS011;11784;49.818;8.632;2022-08-18T16:31:12;5.45;;;2.33;;
23230;SDS011;11784;49.818;8.632;2022-08-18T16:33:39;4.53;;;2.50;;
23230;SDS011;11784;49.818;8.632;2022-08-18T16:36:06;3.47;;;1.92;;
23230;SDS011;11784;49.818;8.632;2022-08-18T16:38:34;4.28;;;2.70;;
23230;SDS011;11784;49.818;8.632;2022-08-18T16:41:06;5.35;;;2.17;;
23230;SDS011;11784;49.818;8.632;2022-08-18T16:43:33;3.10;;;1.75;;
23230;SDS011;11784;49.818;8.632;2022-08-18T16:45:59;3.35;;;2.25;;
23230;SDS011;11784;49.818;8.632;2022-08-18T16:48:27;3.58;;;1.98;;
23230;SDS011;11784;49.818;8.632;2022-08-18T16:50:53;3.10;;;2.13;;
23230;SDS011;11784;49.818;8.632;2022-08-18T16:53:19;4.55;;;2.55;;
23230;SDS011;11784;49.818;8.632;2022-08-18T16:55:44;3.92;;;2.15;;
23230;SDS011;11784;49.818;8.632;2022-08-18T16:58:10;5.50;;;2.65;;
23230;SDS011;11784;49.818;8.632;2022-08-18T17:00:55;4.32;;;2.63;;
23230;SDS011;11784;49.818;8.632;2022-08-18T17:03:39;5.97;;;3.40;;
23230;SDS011;11784;49.818;8.632;2022-08-18T17:06:23;7.55;;;3.70;;
23230;SDS011;11784;49.818;8.632;2022-08-18T17:08:52;6.45;;;3.67;;
23230;SDS011;11784;49.818;8.632;2022-08-18T17:11:19;9.50;;;5.18;;
23230;SDS011;11784;49.818;8.632;2022-08-18T17:13:46;8.15;;;4.20;;
23230;SDS011;11784;49.818;8.632;2022-08-18T17:16:13;7.32;;;3.67;;
23230;SDS011;11784;49.818;8.632;2022-08-18T17:18:40;6.47;;;4.15;;
23230;SDS011;11784;49.818;8.632;2022-08-18T17:21:11;7.60;;;4.18;;
23230;SDS011;11784;49.818;8.632;2022-08-18T17:23:38;11.15;;;4.60;;
23230;SDS011;11784;49.818;8.632;2022-08-18T17:26:05;7.40;;;3.72;;
23230;SDS011;11784;49.818;8.632;2022-08-18T17:28:43;8.55;;;3.85;;
23230;SDS011;11784;49.818;8.632;2022-08-18T17:31:12;6.53;;;3.60;;
23230;SDS011;11784;49.818;8.632;2022-08-18T17:33:38;7.57;;;3.83;;
23230;SDS011;11784;49.818;8.632;2022-08-18T17:36:06;5.35;;;2.97;;